sensor_id;sensor_type;location;lat;lon;timestamp;temperature;humidity
3001;DHT22;1510;51.072;6.678;2022-09-21T00:01:15;6.60;99.90
3001;DHT22;1510;51.072;6.678;2022-09-21T00:03:43;6.60;99.90
3001;DHT22;1510;51.072;6.678;2022-09-21T00:06:13;6.50;99.90
3001;DHT22;1510;51.072;6.678;2022-09-21T00:08:40;6.60;99.90
3001;DHT22;1510;51.072;6.678;2022-09-21T00:11:11;6.50;99.90
3001;DHT22;1510;51.072;6.678;2022-09-21T00:13:40;6.60;99.90
3001;DHT22;1510;51.072;6.678;2022-09-21T00:16:08;6.50;99.90
3001;DHT22;1510;51.072;6.678;2022-09-21T00:18:35;6.50;99.90
3001;DHT22;1510;51.072;6.678;2022-09-21T00:21:05;6.50;99.90
3001;DHT22;1510;51.072;6.678;2022-09-21T00:23:33;6.50;99.90
3001;DHT22;1510;51.072;6.678;2022-09-21T00:26:05;6.60;99.90
3001;DHT22;1510;51.072;6.678;2022-09-21T00:28:32;6.60;99.90
3001;DHT22;1510;51.072;6.678;2022-09-21T00:31:02;6.50;99.90
3001;DHT22;1510;51.072;6.678;2022-09-21T00:33:29;6.40;99.90
3001;DHT22;1510;51.072;6.678;2022-09-21T00:36:00;6.50;99.90
3001;DHT22;1510;51.072;6.678;2022-09-21T00:38:27;6.40;99.90
3001;DHT22;1510;51.072;6.678;2022-09-21T00:40:54;6.30;99.90
3001;DHT22;1510;51.072;6.678;2022-09-21T00:43:21;6.30;99.90
3001;DHT22;1510;51.072;6.678;2022-09-21T00:45:49;6.20;99.90
3001;DHT22;1510;51.072;6.678;2022-09-21T00:48:19;6.20;99.90
3001;DHT22;1510;51.072;6.678;2022-09-21T00:50:50;6.10;99.90
3001;DHT22;1510;51.072;6.678;2022-09-21T00:53:18;6.10;99.90
3001;DHT22;1510;51.072;6.678;2022-09-21T00:55:47;6.00;99.90
3001;DHT22;1510;51.072;6.678;2022-09-21T00:58:19;6.00;99.90
3001;DHT22;1510;51.072;6.678;2022-09-21T01:00:48;5.90;99.90
3001;DHT22;1510;51.072;6.678;2022-09-21T01:03:15;5.80;99.90
3001;DHT22;1510;51.072;6.678;2022-09-21T01:05:43;5.80;99.90
3001;DHT22;1510;51.072;6.678;2022-09-21T01:08:12;5.80;99.90
3001;DHT22;1510;51.072;6.678;2022-09-21T01:10:46;5.80;99.90
3001;DHT22;1510;51.072;6.678;2022-09-21T01:13:22;5.80;99.90
3001;DHT22;1510;51.072;6.678;2022-09-21T01:15:57;5.80;99.90
3001;DHT22;1510;51.072;6.678;2022-09-21T01:18:30;5.80;99.90
3001;DHT22;1510;51.072;6.678;2022-09-21T01:21:21;5.80;99.90
3001;DHT22;1510;51.072;6.678;2022-09-21T01:26:57;5.70;99.90
3001;DHT22;1510;51.072;6.678;2022-09-21T01:29:32;5.50;99.90
3001;DHT22;1510;51.072;6.678;2022-09-21T01:32:07;5.60;99.90
3001;DHT22;1510;51.072;6.678;2022-09-21T01:34:41;5.90;99.90
3001;DHT22;1510;51.072;6.678;2022-09-21T01:37:14;5.90;99.90
3001;DHT22;1510;51.072;6.678;2022-09-21T01:39:46;5.90;99.90
3001;DHT22;1510;51.072;6.678;2022-09-21T01:42:15;5.80;99.90
3001;DHT22;1510;51.072;6.678;2022-09-21T01:44:45;5.80;99.90
3001;DHT22;1510;51.072;6.678;2022-09-21T01:47:13;5.70;99.90
3001;DHT22;1510;51.072;6.678;2022-09-21T01:49:44;5.60;99.90
3001;DHT22;1510;51.072;6.678;2022-09-21T01:52:21;5.50;99.90
3001;DHT22;1510;51.072;6.678;2022-09-21T01:54:52;5.40;99.90
3001;DHT22;1510;51.072;6.678;2022-09-21T01:57:25;5.50;99.90
3001;DHT22;1510;51.072;6.678;2022-09-21T01:59:55;5.60;99.90
3001;DHT22;1510;51.072;6.678;2022-09-21T02:02:28;5.60;99.90
3001;DHT22;1510;51.072;6.678;2022-09-21T02:04:57;5.60;99.90
3001;DHT22;1510;51.072;6.678;2022-09-21T02:07:24;5.50;99.90
3001;DHT22;1510;51.072;6.678;2022-09-21T02:09:52;5.60;99.90
3001;DHT22;1510;51.072;6.678;2022-09-21T02:12:20;5.60;99.90
3001;DHT22;1510;51.072;6.678;2022-09-21T02:14:48;5.60;99.90
3001;DHT22;1510;51.072;6.678;2022-09-21T02:17:31;5.70;99.90
3001;DHT22;1510;51.072;6.678;2022-09-21T02:20:06;5.60;99.90
3001;DHT22;1510;51.072;6.678;2022-09-21T02:22:40;5.60;99.90
3001;DHT22;1510;51.072;6.678;2022-09-21T02:25:12;5.60;99.90
3001;DHT22;1510;51.072;6.678;2022-09-21T02:27:47;5.60;99.90
3001;DHT22;1510;51.072;6.678;2022-09-21T02:30:17;5.60;99.90
3001;DHT22;1510;51.072;6.678;2022-09-21T02:32:49;5.70;99.90
3001;DHT22;1510;51.072;6.678;2022-09-21T02:35:24;5.60;99.90
3001;DHT22;1510;51.072;6.678;2022-09-21T02:37:57;5.60;99.90
3001;DHT22;1510;51.072;6.678;2022-09-21T02:40:31;5.70;99.90
3001;DHT22;1510;51.072;6.678;2022-09-21T02:43:02;5.70;99.90
3001;DHT22;1510;51.072;6.678;2022-09-21T02:45:35;5.80;99.90
3001;DHT22;1510;51.072;6.678;2022-09-21T02:48:08;5.70;99.90
3001;DHT22;1510;51.072;6.678;2022-09-21T02:50:40;5.70;99.90
3001;DHT22;1510;51.072;6.678;2022-09-21T02:53:08;5.70;99.90
3001;DHT22;1510;51.072;6.678;2022-09-21T02:55:37;5.60;99.90
3001;DHT22;1510;51.072;6.678;2022-09-21T02:58:07;5.50;99.90
3001;DHT22;1510;51.072;6.678;2022-09-21T03:00:36;5.60;99.90
3001;DHT22;1510;51.072;6.678;2022-09-21T03:03:15;5.50;99.90
3001;DHT22;1510;51.072;6.678;2022-09-21T03:05:43;5.50;99.90
3001;DHT22;1510;51.072;6.678;2022-09-21T03:08:10;5.50;99.90
3001;DHT22;1510;51.072;6.678;2022-09-21T03:10:37;5.50;99.90
3001;DHT22;1510;51.072;6.678;2022-09-21T03:13:05;5.40;99.90
3001;DHT22;1510;51.072;6.678;2022-09-21T03:15:33;5.50;99.90
3001;DHT22;1510;51.072;6.678;2022-09-21T03:18:00;5.40;99.90
3001;DHT22;1510;51.072;6.678;2022-09-21T03:20:29;5.30;99.90
3001;DHT22;1510;51.072;6.678;2022-09-21T03:22:56;5.30;99.90
3001;DHT22;1510;51.072;6.678;2022-09-21T03:25:23;5.30;99.90
3001;DHT22;1510;51.072;6.678;2022-09-21T03:27:50;5.30;99.90
3001;DHT22;1510;51.072;6.678;2022-09-21T03:30:18;5.20;99.90
3001;DHT22;1510;51.072;6.678;2022-09-21T03:32:45;5.20;99.90
3001;DHT22;1510;51.072;6.678;2022-09-21T03:35:14;5.20;99.90
3001;DHT22;1510;51.072;6.678;2022-09-21T03:37:42;5.30;99.90
3001;DHT22;1510;51.072;6.678;2022-09-21T03:40:09;5.30;99.90
3001;DHT22;1510;51.072;6.678;2022-09-21T03:42:37;5.20;99.90
3001;DHT22;1510;51.072;6.678;2022-09-21T03:45:04;5.20;99.90
3001;DHT22;1510;51.072;6.678;2022-09-21T03:47:31;5.00;99.90
3001;DHT22;1510;51.072;6.678;2022-09-21T03:49:58;4.90;99.90
3001;DHT22;1510;51.072;6.678;2022-09-21T03:52:25;4.90;99.90
3001;DHT22;1510;51.072;6.678;2022-09-21T03:54:53;4.90;99.90
3001;DHT22;1510;51.072;6.678;2022-09-21T03:57:20;4.80;99.90
3001;DHT22;1510;51.072;6.678;2022-09-21T03:59:55;4.80;99.90
3001;DHT22;1510;51.072;6.678;2022-09-21T04:02:31;4.90;99.90
3001;DHT22;1510;51.072;6.678;2022-09-21T04:05:03;4.80;99.90
3001;DHT22;1510;51.072;6.678;2022-09-21T04:07:31;4.80;99.90
3001;DHT22;1510;51.072;6.678;2022-09-21T04:19:22;5.00;99.90
3001;DHT22;1510;51.072;6.678;2022-09-21T04:21:48;5.10;99.90
3001;DHT22;1510;51.072;6.678;2022-09-21T04:24:49;5.00;99.90
3001;DHT22;1510;51.072;6.678;2022-09-21T04:27:43;5.10;99.90
3001;DHT22;1510;51.072;6.678;2022-09-21T04:30:12;5.00;99.90
3001;DHT22;1510;51.072;6.678;2022-09-21T04:46:05;4.90;99.90
3001;DHT22;1510;51.072;6.678;2022-09-21T04:48:32;4.80;99.90
3001;DHT22;1510;51.072;6.678;2022-09-21T04:50:59;4.80;99.90
3001;DHT22;1510;51.072;6.678;2022-09-21T04:53:49;4.70;99.90
3001;DHT22;1510;51.072;6.678;2022-09-21T04:56:25;4.80;99.90
3001;DHT22;1510;51.072;6.678;2022-09-21T04:58:52;4.80;99.90
3001;DHT22;1510;51.072;6.678;2022-09-21T05:01:46;4.70;99.90
3001;DHT22;1510;51.072;6.678;2022-09-21T05:04:22;4.70;99.90
3001;DHT22;1510;51.072;6.678;2022-09-21T05:07:10;4.70;99.90
3001;DHT22;1510;51.072;6.678;2022-09-21T05:09:58;4.70;99.90
3001;DHT22;1510;51.072;6.678;2022-09-21T05:12:28;4.90;99.90
3001;DHT22;1510;51.072;6.678;2022-09-21T05:14:55;4.90;99.90
3001;DHT22;1510;51.072;6.678;2022-09-21T05:17:23;4.90;99.90
3001;DHT22;1510;51.072;6.678;2022-09-21T05:19:50;4.80;99.90
3001;DHT22;1510;51.072;6.678;2022-09-21T05:22:18;4.90;99.90
3001;DHT22;1510;51.072;6.678;2022-09-21T05:24:45;4.90;99.90
3001;DHT22;1510;51.072;6.678;2022-09-21T05:27:11;4.90;99.90
3001;DHT22;1510;51.072;6.678;2022-09-21T05:29:39;5.10;99.90
3001;DHT22;1510;51.072;6.678;2022-09-21T05:32:12;5.30;99.90
3001;DHT22;1510;51.072;6.678;2022-09-21T05:34:54;5.50;99.90
3001;DHT22;1510;51.072;6.678;2022-09-21T05:37:38;5.50;99.90
3001;DHT22;1510;51.072;6.678;2022-09-21T05:40:09;5.40;99.90
3001;DHT22;1510;51.072;6.678;2022-09-21T05:42:36;5.50;99.90
3001;DHT22;1510;51.072;6.678;2022-09-21T05:45:04;5.50;99.90
3001;DHT22;1510;51.072;6.678;2022-09-21T05:47:37;5.50;99.90
3001;DHT22;1510;51.072;6.678;2022-09-21T05:50:19;5.70;99.90
3001;DHT22;1510;51.072;6.678;2022-09-21T05:52:55;5.80;99.90
3001;DHT22;1510;51.072;6.678;2022-09-21T05:55:28;5.80;99.90
3001;DHT22;1510;51.072;6.678;2022-09-21T05:58:03;5.80;99.90
3001;DHT22;1510;51.072;6.678;2022-09-21T06:00:38;5.70;99.90
3001;DHT22;1510;51.072;6.678;2022-09-21T06:03:25;5.70;99.90
3001;DHT22;1510;51.072;6.678;2022-09-21T06:05:54;5.70;99.90
3001;DHT22;1510;51.072;6.678;2022-09-21T06:08:20;5.80;99.90
3001;DHT22;1510;51.072;6.678;2022-09-21T06:10:47;5.80;99.90
3001;DHT22;1510;51.072;6.678;2022-09-21T06:13:14;5.90;99.90
3001;DHT22;1510;51.072;6.678;2022-09-21T06:15:41;5.90;99.90
3001;DHT22;1510;51.072;6.678;2022-09-21T06:18:09;6.10;99.90
3001;DHT22;1510;51.072;6.678;2022-09-21T06:20:36;6.30;99.90
3001;DHT22;1510;51.072;6.678;2022-09-21T06:23:05;6.40;99.90
3001;DHT22;1510;51.072;6.678;2022-09-21T06:25:32;6.40;99.90
3001;DHT22;1510;51.072;6.678;2022-09-21T06:28:01;6.60;99.90
3001;DHT22;1510;51.072;6.678;2022-09-21T06:30:29;6.70;99.90
3001;DHT22;1510;51.072;6.678;2022-09-21T06:32:58;6.80;99.90
3001;DHT22;1510;51.072;6.678;2022-09-21T06:35:25;6.90;99.90
3001;DHT22;1510;51.072;6.678;2022-09-21T06:37:56;7.00;99.90
3001;DHT22;1510;51.072;6.678;2022-09-21T06:40:25;7.10;99.90
3001;DHT22;1510;51.072;6.678;2022-09-21T06:42:54;7.20;99.90
3001;DHT22;1510;51.072;6.678;2022-09-21T06:45:22;7.30;99.90
3001;DHT22;1510;51.072;6.678;2022-09-21T06:47:48;7.50;99.90
3001;DHT22;1510;51.072;6.678;2022-09-21T06:50:15;7.60;99.90
3001;DHT22;1510;51.072;6.678;2022-09-21T06:52:42;7.80;99.90
3001;DHT22;1510;51.072;6.678;2022-09-21T06:55:09;7.80;99.90
3001;DHT22;1510;51.072;6.678;2022-09-21T06:57:37;8.00;99.90
3001;DHT22;1510;51.072;6.678;2022-09-21T07:00:06;8.20;99.90
3001;DHT22;1510;51.072;6.678;2022-09-21T07:02:33;8.30;99.90
3001;DHT22;1510;51.072;6.678;2022-09-21T07:05:00;8.40;99.90
3001;DHT22;1510;51.072;6.678;2022-09-21T07:07:27;8.60;99.90
3001;DHT22;1510;51.072;6.678;2022-09-21T07:09:56;8.80;99.90
3001;DHT22;1510;51.072;6.678;2022-09-21T07:12:26;8.90;99.90
3001;DHT22;1510;51.072;6.678;2022-09-21T07:14:55;9.00;99.90
3001;DHT22;1510;51.072;6.678;2022-09-21T07:17:21;9.20;99.90
3001;DHT22;1510;51.072;6.678;2022-09-21T07:19:48;9.40;99.90
3001;DHT22;1510;51.072;6.678;2022-09-21T07:22:15;9.70;99.90
3001;DHT22;1510;51.072;6.678;2022-09-21T07:24:42;10.00;99.90
3001;DHT22;1510;51.072;6.678;2022-09-21T07:27:08;10.20;99.90
3001;DHT22;1510;51.072;6.678;2022-09-21T07:29:35;10.40;99.90
3001;DHT22;1510;51.072;6.678;2022-09-21T07:32:03;10.60;99.90
3001;DHT22;1510;51.072;6.678;2022-09-21T07:34:34;10.80;99.90
3001;DHT22;1510;51.072;6.678;2022-09-21T07:37:01;10.90;99.90
3001;DHT22;1510;51.072;6.678;2022-09-21T07:39:28;11.00;99.90
3001;DHT22;1510;51.072;6.678;2022-09-21T07:41:55;11.20;99.90
3001;DHT22;1510;51.072;6.678;2022-09-21T07:44:23;11.20;99.90
3001;DHT22;1510;51.072;6.678;2022-09-21T07:46:50;11.30;99.90
3001;DHT22;1510;51.072;6.678;2022-09-21T07:49:18;11.30;99.90
3001;DHT22;1510;51.072;6.678;2022-09-21T07:51:44;11.30;99.90
3001;DHT22;1510;51.072;6.678;2022-09-21T07:54:11;11.30;99.90
3001;DHT22;1510;51.072;6.678;2022-09-21T07:56:39;11.20;99.90
3001;DHT22;1510;51.072;6.678;2022-09-21T07:59:06;11.20;99.90
3001;DHT22;1510;51.072;6.678;2022-09-21T08:01:34;11.20;99.90
3001;DHT22;1510;51.072;6.678;2022-09-21T08:04:01;11.10;99.90
3001;DHT22;1510;51.072;6.678;2022-09-21T08:06:31;11.20;99.90
3001;DHT22;1510;51.072;6.678;2022-09-21T08:09:00;11.20;99.90
3001;DHT22;1510;51.072;6.678;2022-09-21T08:11:28;11.30;99.90
3001;DHT22;1510;51.072;6.678;2022-09-21T08:13:57;11.50;99.90
3001;DHT22;1510;51.072;6.678;2022-09-21T08:16:24;11.70;99.90
3001;DHT22;1510;51.072;6.678;2022-09-21T08:18:51;11.90;99.90
3001;DHT22;1510;51.072;6.678;2022-09-21T08:21:18;12.20;99.90
3001;DHT22;1510;51.072;6.678;2022-09-21T08:23:48;12.50;99.90
3001;DHT22;1510;51.072;6.678;2022-09-21T08:26:16;12.70;99.90
3001;DHT22;1510;51.072;6.678;2022-09-21T08:28:44;13.00;99.90
3001;DHT22;1510;51.072;6.678;2022-09-21T08:31:14;13.30;99.90
3001;DHT22;1510;51.072;6.678;2022-09-21T08:33:41;13.80;99.90
3001;DHT22;1510;51.072;6.678;2022-09-21T08:36:08;13.80;99.90
3001;DHT22;1510;51.072;6.678;2022-09-21T08:38:36;13.90;99.90
3001;DHT22;1510;51.072;6.678;2022-09-21T08:41:14;14.10;99.90
3001;DHT22;1510;51.072;6.678;2022-09-21T08:43:43;14.40;99.90
3001;DHT22;1510;51.072;6.678;2022-09-21T08:46:14;14.70;99.90
3001;DHT22;1510;51.072;6.678;2022-09-21T08:48:45;14.90;99.90
3001;DHT22;1510;51.072;6.678;2022-09-21T08:51:16;14.90;99.70
3001;DHT22;1510;51.072;6.678;2022-09-21T08:53:48;15.10;99.70
3001;DHT22;1510;51.072;6.678;2022-09-21T08:56:19;15.20;99.90
3001;DHT22;1510;51.072;6.678;2022-09-21T08:58:47;15.30;99.60
3001;DHT22;1510;51.072;6.678;2022-09-21T09:01:27;15.80;98.70
3001;DHT22;1510;51.072;6.678;2022-09-21T09:07:16;16.20;93.90
3001;DHT22;1510;51.072;6.678;2022-09-21T09:10:15;16.50;94.50
3001;DHT22;1510;51.072;6.678;2022-09-21T09:12:54;16.90;91.40
3001;DHT22;1510;51.072;6.678;2022-09-21T09:15:45;17.40;92.10
3001;DHT22;1510;51.072;6.678;2022-09-21T09:18:20;17.50;88.90
3001;DHT22;1510;51.072;6.678;2022-09-21T09:20:54;17.50;83.80
3001;DHT22;1510;51.072;6.678;2022-09-21T09:23:25;17.80;85.00
3001;DHT22;1510;51.072;6.678;2022-09-21T09:25:56;18.00;82.30
3001;DHT22;1510;51.072;6.678;2022-09-21T09:28:29;18.00;84.30
3001;DHT22;1510;51.072;6.678;2022-09-21T09:31:00;18.40;80.70
3001;DHT22;1510;51.072;6.678;2022-09-21T09:33:37;18.80;78.90
3001;DHT22;1510;51.072;6.678;2022-09-21T09:36:08;19.20;74.30
3001;DHT22;1510;51.072;6.678;2022-09-21T09:38:39;19.20;69.40
3001;DHT22;1510;51.072;6.678;2022-09-21T09:41:17;19.20;69.40
3001;DHT22;1510;51.072;6.678;2022-09-21T09:43:56;19.70;69.80
3001;DHT22;1510;51.072;6.678;2022-09-21T09:46:31;19.40;63.30
3001;DHT22;1510;51.072;6.678;2022-09-21T09:49:19;20.00;64.50
3001;DHT22;1510;51.072;6.678;2022-09-21T09:51:49;19.80;57.80
3001;DHT22;1510;51.072;6.678;2022-09-21T09:54:17;20.40;59.10
3001;DHT22;1510;51.072;6.678;2022-09-21T09:56:46;20.60;57.60
3001;DHT22;1510;51.072;6.678;2022-09-21T09:59:22;21.00;56.40
3001;DHT22;1510;51.072;6.678;2022-09-21T10:01:59;21.80;54.90
3001;DHT22;1510;51.072;6.678;2022-09-21T10:04:26;21.70;49.10
3001;DHT22;1510;51.072;6.678;2022-09-21T10:06:53;21.50;48.10
3001;DHT22;1510;51.072;6.678;2022-09-21T10:09:24;21.30;48.50
3001;DHT22;1510;51.072;6.678;2022-09-21T10:11:51;21.40;48.20
3001;DHT22;1510;51.072;6.678;2022-09-21T10:14:21;21.20;48.10
3001;DHT22;1510;51.072;6.678;2022-09-21T10:16:49;21.70;43.80
3001;DHT22;1510;51.072;6.678;2022-09-21T10:19:20;22.20;41.20
3001;DHT22;1510;51.072;6.678;2022-09-21T10:21:51;22.20;42.40
3001;DHT22;1510;51.072;6.678;2022-09-21T10:24:22;22.70;37.80
3001;DHT22;1510;51.072;6.678;2022-09-21T10:26:51;22.80;37.20
3001;DHT22;1510;51.072;6.678;2022-09-21T10:29:30;23.20;34.90
3001;DHT22;1510;51.072;6.678;2022-09-21T10:31:59;23.60;31.60
3001;DHT22;1510;51.072;6.678;2022-09-21T10:34:28;23.80;29.80
3001;DHT22;1510;51.072;6.678;2022-09-21T10:36:57;24.00;28.60
3001;DHT22;1510;51.072;6.678;2022-09-21T10:39:26;23.00;24.50
3001;DHT22;1510;51.072;6.678;2022-09-21T10:41:58;22.50;24.90
3001;DHT22;1510;51.072;6.678;2022-09-21T10:44:32;22.40;24.40
3001;DHT22;1510;51.072;6.678;2022-09-21T10:47:12;22.00;25.60
3001;DHT22;1510;51.072;6.678;2022-09-21T10:49:43;21.90;27.30
3001;DHT22;1510;51.072;6.678;2022-09-21T10:52:11;22.70;25.30
3001;DHT22;1510;51.072;6.678;2022-09-21T10:54:39;23.40;23.80
3001;DHT22;1510;51.072;6.678;2022-09-21T10:57:09;24.10;20.40
3001;DHT22;1510;51.072;6.678;2022-09-21T10:59:41;23.50;20.80
3001;DHT22;1510;51.072;6.678;2022-09-21T11:02:32;23.70;22.40
3001;DHT22;1510;51.072;6.678;2022-09-21T11:05:04;24.20;15.30
3001;DHT22;1510;51.072;6.678;2022-09-21T11:07:34;24.40;15.40
3001;DHT22;1510;51.072;6.678;2022-09-21T11:10:08;25.00;15.80
3001;DHT22;1510;51.072;6.678;2022-09-21T11:12:46;24.20;14.40
3001;DHT22;1510;51.072;6.678;2022-09-21T11:15:22;24.30;15.30
3001;DHT22;1510;51.072;6.678;2022-09-21T11:17:59;24.70;15.60
3001;DHT22;1510;51.072;6.678;2022-09-21T11:20:32;24.70;15.60
3001;DHT22;1510;51.072;6.678;2022-09-21T11:23:07;24.10;13.00
3001;DHT22;1510;51.072;6.678;2022-09-21T11:25:42;24.40;14.40
3001;DHT22;1510;51.072;6.678;2022-09-21T11:28:13;25.20;8.20
3001;DHT22;1510;51.072;6.678;2022-09-21T11:31:04;24.60;10.70
3001;DHT22;1510;51.072;6.678;2022-09-21T11:33:49;24.50;6.60
3001;DHT22;1510;51.072;6.678;2022-09-21T11:36:26;25.30;7.00
3001;DHT22;1510;51.072;6.678;2022-09-21T11:39:02;26.30;4.30
3001;DHT22;1510;51.072;6.678;2022-09-21T11:41:44;25.90;4.00
3001;DHT22;1510;51.072;6.678;2022-09-21T11:44:24;25.70;4.30
3001;DHT22;1510;51.072;6.678;2022-09-21T11:47:03;25.40;4.20
3001;DHT22;1510;51.072;6.678;2022-09-21T11:49:44;26.00;3.00
3001;DHT22;1510;51.072;6.678;2022-09-21T11:52:24;25.80;1.00
3001;DHT22;1510;51.072;6.678;2022-09-21T11:55:16;25.80;1.00
3001;DHT22;1510;51.072;6.678;2022-09-21T11:57:52;26.20;1.00
3001;DHT22;1510;51.072;6.678;2022-09-21T12:00:20;27.30;1.00
3001;DHT22;1510;51.072;6.678;2022-09-21T12:06:01;26.30;1.00
3001;DHT22;1510;51.072;6.678;2022-09-21T12:08:47;27.10;1.00
3001;DHT22;1510;51.072;6.678;2022-09-21T12:11:27;27.60;1.00
3001;DHT22;1510;51.072;6.678;2022-09-21T12:14:00;27.90;1.00
3001;DHT22;1510;51.072;6.678;2022-09-21T12:16:34;27.50;1.00
3001;DHT22;1510;51.072;6.678;2022-09-21T12:19:08;27.10;1.00
3001;DHT22;1510;51.072;6.678;2022-09-21T12:21:41;27.40;1.00
3001;DHT22;1510;51.072;6.678;2022-09-21T12:24:14;27.70;1.00
3001;DHT22;1510;51.072;6.678;2022-09-21T12:26:46;28.10;1.00
3001;DHT22;1510;51.072;6.678;2022-09-21T12:29:19;28.20;1.00
3001;DHT22;1510;51.072;6.678;2022-09-21T12:31:56;28.70;1.00
3001;DHT22;1510;51.072;6.678;2022-09-21T12:34:29;28.30;1.00
3001;DHT22;1510;51.072;6.678;2022-09-21T12:37:03;26.90;1.00
3001;DHT22;1510;51.072;6.678;2022-09-21T12:39:36;25.80;1.00
3001;DHT22;1510;51.072;6.678;2022-09-21T12:42:12;27.10;1.00
3001;DHT22;1510;51.072;6.678;2022-09-21T12:44:46;27.30;1.00
3001;DHT22;1510;51.072;6.678;2022-09-21T12:47:23;27.30;1.00
3001;DHT22;1510;51.072;6.678;2022-09-21T12:49:57;27.60;1.00
3001;DHT22;1510;51.072;6.678;2022-09-21T12:52:26;27.80;1.00
3001;DHT22;1510;51.072;6.678;2022-09-21T12:54:58;27.40;1.00
3001;DHT22;1510;51.072;6.678;2022-09-21T12:57:45;26.40;1.00
3001;DHT22;1510;51.072;6.678;2022-09-21T13:00:17;27.20;1.00
3001;DHT22;1510;51.072;6.678;2022-09-21T13:02:47;26.20;1.00
3001;DHT22;1510;51.072;6.678;2022-09-21T13:05:28;26.40;1.00
3001;DHT22;1510;51.072;6.678;2022-09-21T13:08:02;26.80;1.00
3001;DHT22;1510;51.072;6.678;2022-09-21T13:10:40;27.40;1.00
3001;DHT22;1510;51.072;6.678;2022-09-21T13:13:21;28.90;1.00
3001;DHT22;1510;51.072;6.678;2022-09-21T13:15:49;29.50;1.00
3001;DHT22;1510;51.072;6.678;2022-09-21T13:18:20;28.50;1.00
3001;DHT22;1510;51.072;6.678;2022-09-21T13:20:50;27.40;1.00
3001;DHT22;1510;51.072;6.678;2022-09-21T13:23:21;27.30;1.00
3001;DHT22;1510;51.072;6.678;2022-09-21T13:26:01;27.90;1.00
3001;DHT22;1510;51.072;6.678;2022-09-21T13:29:03;26.30;1.00
3001;DHT22;1510;51.072;6.678;2022-09-21T13:31:41;26.40;1.00
3001;DHT22;1510;51.072;6.678;2022-09-21T13:34:35;28.00;1.00
3001;DHT22;1510;51.072;6.678;2022-09-21T13:37:34;27.90;1.00
3001;DHT22;1510;51.072;6.678;2022-09-21T13:43:23;26.60;1.00
3001;DHT22;1510;51.072;6.678;2022-09-21T13:45:55;27.00;1.00
3001;DHT22;1510;51.072;6.678;2022-09-21T13:48:25;27.30;1.00
3001;DHT22;1510;51.072;6.678;2022-09-21T13:50:59;26.00;1.00
3001;DHT22;1510;51.072;6.678;2022-09-21T13:53:33;26.10;1.00
3001;DHT22;1510;51.072;6.678;2022-09-21T13:56:08;26.10;1.00
3001;DHT22;1510;51.072;6.678;2022-09-21T13:58:40;25.40;1.00
3001;DHT22;1510;51.072;6.678;2022-09-21T14:01:14;26.10;1.00
3001;DHT22;1510;51.072;6.678;2022-09-21T14:03:43;25.80;1.00
3001;DHT22;1510;51.072;6.678;2022-09-21T14:06:13;25.20;1.00
3001;DHT22;1510;51.072;6.678;2022-09-21T14:08:49;24.90;1.00
3001;DHT22;1510;51.072;6.678;2022-09-21T14:11:21;24.00;1.00
3001;DHT22;1510;51.072;6.678;2022-09-21T14:14:02;24.00;1.00
3001;DHT22;1510;51.072;6.678;2022-09-21T14:17:02;25.00;1.00
3001;DHT22;1510;51.072;6.678;2022-09-21T14:20:04;24.90;1.00
3001;DHT22;1510;51.072;6.678;2022-09-21T14:22:37;24.90;1.00
3001;DHT22;1510;51.072;6.678;2022-09-21T14:25:26;25.40;1.00
3001;DHT22;1510;51.072;6.678;2022-09-21T14:27:58;24.30;1.00
3001;DHT22;1510;51.072;6.678;2022-09-21T14:30:28;24.40;1.00
3001;DHT22;1510;51.072;6.678;2022-09-21T14:33:18;23.40;1.00
3001;DHT22;1510;51.072;6.678;2022-09-21T14:35:46;22.40;1.00
3001;DHT22;1510;51.072;6.678;2022-09-21T14:38:18;21.80;1.00
3001;DHT22;1510;51.072;6.678;2022-09-21T14:40:49;21.10;1.00
3001;DHT22;1510;51.072;6.678;2022-09-21T14:43:19;21.40;1.00
3001;DHT22;1510;51.072;6.678;2022-09-21T14:46:02;20.80;1.00
3001;DHT22;1510;51.072;6.678;2022-09-21T14:48:40;20.10;1.00
3001;DHT22;1510;51.072;6.678;2022-09-21T14:51:16;19.40;1.00
3001;DHT22;1510;51.072;6.678;2022-09-21T14:54:05;19.20;2.50
3001;DHT22;1510;51.072;6.678;2022-09-21T14:56:50;20.20;1.00
3001;DHT22;1510;51.072;6.678;2022-09-21T15:02:17;20.60;1.00
3001;DHT22;1510;51.072;6.678;2022-09-21T15:05:11;20.10;1.00
3001;DHT22;1510;51.072;6.678;2022-09-21T15:07:45;20.00;1.00
3001;DHT22;1510;51.072;6.678;2022-09-21T15:10:31;20.30;1.00
3001;DHT22;1510;51.072;6.678;2022-09-21T15:16:34;19.40;4.10
3001;DHT22;1510;51.072;6.678;2022-09-21T15:19:19;18.70;7.00
3001;DHT22;1510;51.072;6.678;2022-09-21T15:21:47;18.30;9.50
3001;DHT22;1510;51.072;6.678;2022-09-21T15:24:25;17.90;10.70
3001;DHT22;1510;51.072;6.678;2022-09-21T15:27:00;17.40;12.30
3001;DHT22;1510;51.072;6.678;2022-09-21T15:29:30;17.20;15.80
3001;DHT22;1510;51.072;6.678;2022-09-21T15:31:58;16.90;15.70
3001;DHT22;1510;51.072;6.678;2022-09-21T15:34:26;16.70;18.20
3001;DHT22;1510;51.072;6.678;2022-09-21T15:37:05;16.60;17.30
3001;DHT22;1510;51.072;6.678;2022-09-21T15:39:32;16.50;23.40
3001;DHT22;1510;51.072;6.678;2022-09-21T15:42:15;16.30;22.70
3001;DHT22;1510;51.072;6.678;2022-09-21T15:44:46;16.20;23.70
3001;DHT22;1510;51.072;6.678;2022-09-21T15:47:17;16.10;24.10
3001;DHT22;1510;51.072;6.678;2022-09-21T15:49:45;16.60;24.60
3001;DHT22;1510;51.072;6.678;2022-09-21T15:52:19;17.10;20.60
3001;DHT22;1510;51.072;6.678;2022-09-21T15:54:51;17.40;20.20
3001;DHT22;1510;51.072;6.678;2022-09-21T15:57:33;17.60;15.40
3001;DHT22;1510;51.072;6.678;2022-09-21T16:00:06;17.70;12.70
3001;DHT22;1510;51.072;6.678;2022-09-21T16:02:57;18.40;11.10
3001;DHT22;1510;51.072;6.678;2022-09-21T16:05:29;19.40;11.80
3001;DHT22;1510;51.072;6.678;2022-09-21T16:08:05;20.10;10.20
3001;DHT22;1510;51.072;6.678;2022-09-21T16:11:12;20.20;7.90
3001;DHT22;1510;51.072;6.678;2022-09-21T16:13:40;20.20;7.20
3001;DHT22;1510;51.072;6.678;2022-09-21T16:16:26;20.60;7.00
3001;DHT22;1510;51.072;6.678;2022-09-21T16:18:55;20.90;5.20
3001;DHT22;1510;51.072;6.678;2022-09-21T16:21:25;20.90;5.20
3001;DHT22;1510;51.072;6.678;2022-09-21T16:23:55;21.00;4.00
3001;DHT22;1510;51.072;6.678;2022-09-21T16:26:25;21.30;4.20
3001;DHT22;1510;51.072;6.678;2022-09-21T16:28:58;21.50;2.10
3001;DHT22;1510;51.072;6.678;2022-09-21T16:31:45;21.50;2.30
3001;DHT22;1510;51.072;6.678;2022-09-21T16:34:19;21.30;1.10
3001;DHT22;1510;51.072;6.678;2022-09-21T16:36:48;21.30;4.10
3001;DHT22;1510;51.072;6.678;2022-09-21T16:39:18;21.30;3.30
3001;DHT22;1510;51.072;6.678;2022-09-21T16:42:00;21.00;5.30
3001;DHT22;1510;51.072;6.678;2022-09-21T16:44:28;20.50;6.10
3001;DHT22;1510;51.072;6.678;2022-09-21T16:47:18;20.60;7.40
3001;DHT22;1510;51.072;6.678;2022-09-21T16:50:27;20.70;7.80
3001;DHT22;1510;51.072;6.678;2022-09-21T16:55:28;20.10;9.30
3001;DHT22;1510;51.072;6.678;2022-09-21T16:58:22;19.70;12.00
3001;DHT22;1510;51.072;6.678;2022-09-21T17:00:53;19.20;14.70
3001;DHT22;1510;51.072;6.678;2022-09-21T17:03:41;19.00;17.30
3001;DHT22;1510;51.072;6.678;2022-09-21T17:06:14;18.60;18.70
3001;DHT22;1510;51.072;6.678;2022-09-21T17:08:42;18.30;18.50
3001;DHT22;1510;51.072;6.678;2022-09-21T17:11:09;17.90;18.20
3001;DHT22;1510;51.072;6.678;2022-09-21T17:13:35;17.60;17.40
3001;DHT22;1510;51.072;6.678;2022-09-21T17:16:14;17.20;16.80
3001;DHT22;1510;51.072;6.678;2022-09-21T17:22:08;15.80;19.70
3001;DHT22;1510;51.072;6.678;2022-09-21T17:25:51;15.10;23.60
3001;DHT22;1510;51.072;6.678;2022-09-21T17:28:36;14.50;28.60
3001;DHT22;1510;51.072;6.678;2022-09-21T17:34:06;13.90;33.80
3001;DHT22;1510;51.072;6.678;2022-09-21T17:34:38;13.50;37.00
3001;DHT22;1510;51.072;6.678;2022-09-21T17:37:08;13.00;38.40
3001;DHT22;1510;51.072;6.678;2022-09-21T17:39:35;12.80;39.80